Time;durP1;ratioP1;P1;durP2;ratioP2;P2;SDS_P1;SDS_P2;PMS_P1;PMS_P2;Temp;Humidity;BMP_temperature;BMP_pressure;BME280_temperature;BME280_humidity;BME280_pressure;Samples;Min_cycle;Max_cycle;Signal;HPM_P1;HPM_P2
2023/05/04 00:00:14;;;;;;;4.55;3.05;;;;;;;9.77;82.09;101032.50;4965532;29;20051;-91
2023/05/04 00:02:41;;;;;;;8.07;3.38;;;;;;;9.77;81.74;101035.13;4954933;29;20083;-94
2023/05/04 00:05:11;;;;;;;6.57;3.10;;;;;;;9.62;82.28;101025.06;4956469;29;20043;-91
2023/05/04 00:07:40;;;;;;;6.93;3.20;;;;;;;9.57;82.47;101021.75;4954736;29;20066;-92
2023/05/04 00:10:14;;;;;;;6.80;3.58;;;;;;;9.45;82.76;101015.03;4973883;29;20047;-92
2023/05/04 00:12:42;;;;;;;5.28;3.20;;;;;;;9.46;83.14;101031.78;4969880;29;20126;-91
2023/05/04 00:15:13;;;;;;;6.70;3.30;;;;;;;9.43;83.74;101032.75;4966027;29;20432;-92
2023/05/04 00:17:42;;;;;;;4.82;3.55;;;;;;;9.36;84.61;101035.63;4965590;29;20047;-92
2023/05/04 00:20:17;;;;;;;3.97;3.25;;;;;;;9.27;85.14;101023.59;4954686;29;20142;-91
2023/05/04 00:22:45;;;;;;;6.38;3.53;;;;;;;9.25;86.32;101032.47;4959044;29;20089;-92
2023/05/04 00:25:13;;;;;;;8.23;3.92;;;;;;;9.13;87.19;101015.19;4975989;29;20066;-92
2023/05/04 00:27:45;;;;;;;6.35;3.30;;;;;;;9.11;87.69;101020.56;4978123;28;20055;-92
2023/05/04 00:30:25;;;;;;;5.70;3.60;;;;;;;9.11;88.64;101017.91;4980427;28;20100;-92
2023/05/04 00:32:53;;;;;;;9.75;4.18;;;;;;;8.91;88.93;100993.88;4963723;28;20115;-93
2023/05/04 00:35:20;;;;;;;7.18;3.63;;;;;;;8.99;88.50;101002.44;4948471;29;20039;-93
2023/05/04 00:37:46;;;;;;;8.85;3.72;;;;;;;9.07;89.22;101020.69;4947611;28;20035;-95
2023/05/04 00:40:15;;;;;;;8.00;3.92;;;;;;;9.07;89.97;101020.69;4948208;29;20067;-92
2023/05/04 00:42:46;;;;;;;6.93;3.67;;;;;;;9.07;89.79;101018.91;4949355;29;20043;-92
2023/05/04 00:45:17;;;;;;;5.88;4.10;;;;;;;9.08;89.44;101015.38;4980023;28;20039;-92
2023/05/04 00:47:44;;;;;;;5.95;4.10;;;;;;;8.94;89.34;100998.22;4980033;28;20074;-92
2023/05/04 00:50:11;;;;;;;4.50;3.78;;;;;;;8.99;90.01;101012.13;4977687;29;20054;-92
2023/05/04 00:52:43;;;;;;;5.07;3.58;;;;;;;8.75;90.90;100982.94;4978316;29;20071;-91
2023/05/04 00:55:13;;;;;;;5.72;3.75;;;;;;;8.92;91.20;101005.31;4976275;29;20081;-91
2023/05/04 00:57:42;;;;;;;7.85;4.13;;;;;;;8.68;90.60;100962.00;4934192;29;20047;-91
2023/05/04 01:00:12;;;;;;;7.95;4.53;;;;;;;8.93;91.92;101007.06;4964625;29;20074;-90
2023/05/04 01:02:41;;;;;;;5.93;4.40;;;;;;;8.90;92.12;101007.13;4950792;29;20047;-91
2023/05/04 01:05:11;;;;;;;7.88;4.30;;;;;;;8.67;92.10;100978.75;4978508;28;20128;-91
2023/05/04 01:08:05;;;;;;;5.90;3.88;;;;;;;8.78;92.29;101011.03;4977926;28;20043;-91
2023/05/04 01:10:42;;;;;;;7.75;4.13;;;;;;;8.73;92.90;101000.59;4972553;29;20051;-90
2023/05/04 01:13:14;;;;;;;5.40;4.10;;;;;;;8.49;93.34;100972.28;4962174;29;20047;-92
2023/05/04 01:15:42;;;;;;;6.68;3.83;;;;;;;8.64;93.53;101003.50;4962062;29;20055;-91
2023/05/04 01:18:10;;;;;;;8.18;4.28;;;;;;;8.59;93.78;100992.22;4960752;29;20043;-91
2023/05/04 01:20:50;;;;;;;6.90;4.25;;;;;;;8.64;94.13;101006.16;4933733;29;20051;-91
2023/05/04 01:23:17;;;;;;;7.47;4.45;;;;;;;8.58;95.44;100997.53;4961464;29;20384;-92
2023/05/04 01:26:15;;;;;;;6.55;4.15;;;;;;;8.52;95.29;101008.25;4933718;29;20047;-92
2023/05/04 01:29:03;;;;;;;7.18;4.18;;;;;;;8.48;95.99;101001.34;4960610;29;20086;-90
2023/05/04 01:31:36;;;;;;;8.32;4.50;;;;;;;8.46;96.09;100997.91;4962486;29;20047;-91
2023/05/04 01:34:07;;;;;;;6.72;4.00;;;;;;;8.39;96.14;100984.00;4960982;29;20073;-90
2023/05/04 01:36:34;;;;;;;5.10;3.78;;;;;;;8.39;96.25;100986.63;4947513;29;20051;-91
2023/05/04 01:39:14;;;;;;;6.35;4.45;;;;;;;8.46;96.04;101005.81;4949735;29;20067;-91
2023/05/04 01:41:42;;;;;;;6.75;4.25;;;;;;;8.37;96.92;100993.72;4946243;29;20095;-91
2023/05/04 01:44:10;;;;;;;6.38;4.35;;;;;;;8.23;97.22;100972.09;4960178;29;20103;-91
2023/05/04 01:46:37;;;;;;;6.22;4.50;;;;;;;8.39;97.30;100997.19;4961042;29;20055;-90
2023/05/04 01:49:07;;;;;;;6.82;4.15;;;;;;;8.37;97.47;100994.59;4928818;29;20071;-90
2023/05/04 01:51:34;;;;;;;8.73;4.43;;;;;;;8.37;97.37;100993.72;4932859;29;20047;-90
2023/05/04 01:54:01;;;;;;;6.82;4.22;;;;;;;8.40;97.69;100999.78;4946390;29;20110;-90
2023/05/04 01:56:28;;;;;;;7.57;4.30;;;;;;;8.32;97.80;100993.00;4943460;29;20058;-91
2023/05/04 01:58:55;;;;;;;7.07;4.40;;;;;;;8.24;97.24;100989.66;4941038;29;20050;-92
2023/05/04 02:01:22;;;;;;;5.65;4.20;;;;;;;8.31;97.89;101005.31;4959064;29;20043;-91
2023/05/04 02:03:49;;;;;;;7.78;4.00;;;;;;;8.31;97.82;101001.81;4942599;29;20393;-91
2023/05/04 02:06:16;;;;;;;4.93;4.00;;;;;;;8.13;98.66;100965.38;4958719;29;20048;-90
2023/05/04 02:08:45;;;;;;;8.10;4.30;;;;;;;8.29;97.77;100990.41;4943726;29;20040;-90
2023/05/04 02:11:17;;;;;;;7.60;4.43;;;;;;;8.21;98.67;100984.47;4945019;29;20052;-92
2023/05/04 02:13:45;;;;;;;6.60;4.78;;;;;;;8.27;98.51;100995.72;4960394;29;20043;-92
2023/05/04 02:16:22;;;;;;;8.18;5.00;;;;;;;8.34;99.14;101001.75;4959393;29;20051;-91
2023/05/04 02:18:50;;;;;;;7.15;4.47;;;;;;;8.25;98.13;100988.75;4943771;29;20055;-91
2023/05/04 02:21:21;;;;;;;11.95;4.10;;;;;;;8.13;97.40;100960.97;4958615;29;20043;-91
2023/05/04 02:23:48;;;;;;;7.20;4.10;;;;;;;8.33;97.39;100997.38;4927366;29;20050;-91
2023/05/04 02:26:15;;;;;;;6.90;4.70;;;;;;;8.34;97.98;101002.59;4966240;29;20047;-91
2023/05/04 02:28:42;;;;;;;6.68;3.97;;;;;;;8.35;98.16;100998.19;4945753;29;20070;-91
2023/05/04 02:31:10;;;;;;;7.10;4.20;;;;;;;8.29;98.65;100987.78;4958516;29;20047;-90
2023/05/04 02:33:37;;;;;;;6.18;4.22;;;;;;;8.25;99.26;100965.88;4946828;29;20047;-90
2023/05/04 02:36:05;;;;;;;6.72;4.43;;;;;;;8.42;98.08;100984.78;4915264;29;20051;-92
2023/05/04 02:38:33;;;;;;;5.15;3.97;;;;;;;8.44;98.69;100979.47;4963934;29;20089;-91
2023/05/04 02:41:01;;;;;;;6.05;4.60;;;;;;;8.42;97.60;100984.78;4970503;29;20086;-89
2023/05/04 02:43:28;;;;;;;5.60;4.25;;;;;;;8.36;97.38;100984.94;4974684;29;20061;-89
2023/05/04 02:45:55;;;;;;;10.23;5.35;;;;;;;8.31;97.86;100984.19;4959871;29;20039;-89
2023/05/04 02:48:36;;;;;;;7.50;4.38;;;;;;;8.24;98.09;100993.19;4972093;29;20082;-90
2023/05/04 02:51:05;;;;;;;7.20;4.70;;;;;;;8.16;99.03;101000.44;4954088;29;20107;-91
2023/05/04 02:53:35;;;;;;;8.20;4.57;;;;;;;8.05;98.92;100974.34;4963741;29;20043;-91
2023/05/04 02:56:16;;;;;;;7.50;4.95;;;;;;;8.08;99.45;100989.22;4962338;29;20102;-90
2023/05/04 02:58:45;;;;;;;4.80;4.07;;;;;;;8.06;99.78;100988.41;4961843;29;20050;-91
2023/05/04 03:01:17;;;;;;;7.85;4.50;;;;;;;7.99;100.00;100979.81;4948770;29;20496;-90
2023/05/04 03:03:49;;;;;;;6.30;4.68;;;;;;;7.98;100.00;100980.72;4971832;29;20081;-90
2023/05/04 03:06:17;;;;;;;10.25;4.82;;;;;;;7.96;100.00;100979.88;4976184;29;20056;-92
2023/05/04 03:08:47;;;;;;;6.90;4.50;;;;;;;7.99;100.00;100986.84;4963074;29;20111;-90
2023/05/04 03:11:21;;;;;;;6.40;4.05;;;;;;;7.75;100.00;100952.31;4964521;29;20051;-90
2023/05/04 03:13:48;;;;;;;9.10;4.65;;;;;;;7.90;100.00;100977.41;4955702;29;20137;-91
2023/05/04 03:16:18;;;;;;;5.75;4.68;;;;;;;7.88;100.00;100975.69;4975013;29;20054;-90
2023/05/04 03:18:45;;;;;;;9.82;4.90;;;;;;;7.89;100.00;100978.31;4980990;28;20054;-91
2023/05/04 03:21:28;;;;;;;7.82;4.30;;;;;;;7.89;100.00;100978.31;4966163;28;20046;-90
2023/05/04 03:23:54;;;;;;;5.07;4.50;;;;;;;7.76;100.00;100961.09;4963616;28;20441;-89
2023/05/04 03:26:22;;;;;;;5.50;4.68;;;;;;;7.81;100.00;100976.78;4981456;28;20070;-90
2023/05/04 03:28:49;;;;;;;7.97;5.03;;;;;;;7.67;100.00;100961.34;4964769;28;20035;-90
2023/05/04 03:31:18;;;;;;;6.85;4.68;;;;;;;7.78;100.00;100983.00;4965442;28;20049;-91
2023/05/04 03:33:45;;;;;;;6.50;4.32;;;;;;;7.80;100.00;100977.69;4980054;28;20070;-90
2023/05/04 03:36:14;;;;;;;5.03;4.45;;;;;;;7.84;100.00;100974.94;4978998;29;20062;-90
2023/05/04 03:38:41;;;;;;;15.05;5.13;;;;;;;7.83;100.00;100965.31;4955724;29;20043;-91
2023/05/04 03:41:09;;;;;;;7.43;4.68;;;;;;;7.62;100.00;100931.59;4967221;29;20055;-91
2023/05/04 03:43:37;;;;;;;8.10;4.60;;;;;;;7.58;100.00;100929.94;4964406;29;20141;-91
2023/05/04 03:46:06;;;;;;;7.35;4.97;;;;;;;7.73;100.00;100942.69;4969005;29;20039;-90
2023/05/04 03:48:35;;;;;;;7.30;4.40;;;;;;;8.02;100.00;100963.03;4955260;29;20052;-91
2023/05/04 03:51:03;;;;;;;5.70;4.63;;;;;;;8.09;100.00;100969.84;4950657;29;20047;-91
2023/05/04 03:53:35;;;;;;;6.47;4.60;;;;;;;8.15;100.00;100971.47;4965923;29;20097;-92
2023/05/04 03:56:06;;;;;;;9.02;5.82;;;;;;;8.18;100.00;100964.34;4967285;29;20098;-92
2023/05/04 03:58:32;;;;;;;8.38;4.80;;;;;;;8.10;100.00;100954.00;4967137;29;20055;-92
2023/05/04 04:01:06;;;;;;;8.30;4.97;;;;;;;8.15;99.98;100963.56;4954802;29;20102;-89
2023/05/04 04:03:47;;;;;;;6.68;4.70;;;;;;;8.09;99.57;100970.72;4978954;29;20047;-90
2023/05/04 04:06:20;;;;;;;8.63;5.00;;;;;;;8.08;99.83;100973.41;4961495;29;20040;-91
2023/05/04 04:08:56;;;;;;;8.13;4.97;;;;;;;8.06;100.00;100970.81;4965696;29;20047;-92
2023/05/04 04:11:30;;;;;;;10.93;5.22;;;;;;;8.00;100.00;100965.72;4969691;29;20049;-93
2023/05/04 04:14:06;;;;;;;7.55;5.20;;;;;;;7.96;100.00;100958.78;4950446;29;20469;-91
2023/05/04 04:16:42;;;;;;;8.32;4.97;;;;;;;8.05;100.00;100957.66;4968166;29;20047;-92
2023/05/04 04:19:13;;;;;;;5.95;4.88;;;;;;;8.03;100.00;100956.81;4964249;29;20118;-92
2023/05/04 04:21:44;;;;;;;6.00;4.88;;;;;;;8.04;100.00;100962.06;4965146;29;20059;-92
2023/05/04 04:24:25;;;;;;;6.97;5.13;;;;;;;8.01;100.00;100964.81;4949714;29;20062;-93
2023/05/04 04:26:54;;;;;;;7.82;5.10;;;;;;;8.01;100.00;100971.84;4947022;29;20047;-91
2023/05/04 04:29:26;;;;;;;7.57;5.03;;;;;;;7.66;100.00;100906.88;4965086;29;20051;-91
2023/05/04 04:32:07;;;;;;;7.57;5.28;;;;;;;7.93;100.00;100953.59;4952787;29;20134;-92
2023/05/04 04:34:50;;;;;;;8.02;5.80;;;;;;;7.82;100.00;100945.13;4968547;29;20057;-93
2023/05/04 04:37:19;;;;;;;8.52;5.47;;;;;;;7.61;100.00;100911.41;4963669;29;20362;-92
2023/05/04 04:39:57;;;;;;;7.50;5.40;;;;;;;7.84;100.00;100943.31;4967458;29;20043;-92
2023/05/04 04:42:28;;;;;;;;;;;;;;;8.01;100.00;100966.59;4951830;29;20058;-92
2023/05/04 04:45:07;;;;;;;8.85;4.93;;;;;;;7.81;100.00;100931.97;4966406;29;19918;-93
2023/05/04 04:48:21;;;;;;;8.43;5.50;;;;;;;7.94;100.00;100947.41;4954549;29;20043;-93
2023/05/04 04:51:16;;;;;;;8.75;4.90;;;;;;;8.10;100.00;100976.88;4949645;29;20044;-95
2023/05/04 04:54:04;;;;;;;9.98;5.57;;;;;;;7.84;100.00;100929.25;4949086;29;20054;-93
2023/05/04 04:56:37;;;;;;;9.27;5.55;;;;;;;8.07;100.00;100972.53;4916535;29;20082;-92
2023/05/04 04:59:16;;;;;;;9.52;5.32;;;;;;;7.90;100.00;100927.28;4951218;29;20086;-93
2023/05/04 05:01:43;;;;;;;9.68;5.43;;;;;;;7.73;100.00;100900.53;4973638;29;20055;-93
2023/05/04 05:04:11;;;;;;;8.15;5.30;;;;;;;8.29;100.00;100991.28;4963009;28;20035;-92
2023/05/04 05:06:48;;;;;;;8.77;5.20;;;;;;;8.05;100.00;100937.41;4980691;28;20039;-93
2023/05/04 05:09:26;;;;;;;8.18;5.13;;;;;;;8.34;100.00;100978.00;4980003;28;20055;-93
2023/05/04 05:12:33;;;;;;;9.05;5.43;;;;;;;8.52;100.00;100989.78;4964419;29;20051;-93
2023/05/04 05:15:25;;;;;;;7.53;5.13;;;;;;;8.12;99.50;100905.59;4964578;29;20039;-93
2023/05/04 05:18:02;;;;;;;11.18;5.72;;;;;;;8.72;98.64;100996.22;4948722;29;20043;-92
2023/05/04 05:20:33;;;;;;;6.20;4.80;;;;;;;8.76;97.05;100982.00;4944091;29;20035;-92
2023/05/04 05:23:20;;;;;;;7.80;5.10;;;;;;;8.96;96.36;100996.41;4961851;29;20086;-91
2023/05/04 05:25:55;;;;;;;7.38;4.97;;;;;;;9.04;95.23;100989.09;4960804;28;20087;-93
2023/05/04 05:28:31;;;;;;;9.43;5.40;;;;;;;9.11;95.57;100996.78;4964394;28;20039;-93
2023/05/04 05:31:28;;;;;;;7.40;5.50;;;;;;;8.96;92.89;100964.69;4941616;29;20067;-93
2023/05/04 05:33:59;;;;;;;6.85;5.20;;;;;;;9.07;93.90;100978.44;4945943;29;20075;-92
2023/05/04 05:37:08;;;;;;;9.02;5.68;;;;;;;9.22;94.00;100998.22;4960588;29;20043;-93
2023/05/04 05:39:47;;;;;;;6.43;5.40;;;;;;;9.26;93.11;100986.63;4963210;28;20070;-92
2023/05/04 05:42:29;;;;;;;12.63;5.57;;;;;;;9.34;93.46;100996.03;4959253;28;20048;-93
2023/05/04 05:45:11;;;;;;;10.63;5.70;;;;;;;9.43;91.46;100993.13;4963899;28;20066;-94
2023/05/04 05:47:55;;;;;;;7.30;5.00;;;;;;;9.50;89.18;100994.63;4964397;28;20114;-94
2023/05/04 05:50:41;;;;;;;9.95;5.30;;;;;;;9.33;88.84;100956.44;4961752;28;20070;-93
2023/05/04 05:53:56;;;;;;;6.35;4.50;;;;;;;9.59;89.92;100974.09;4913694;29;20071;-93
2023/05/04 05:56:45;;;;;;;8.88;5.30;;;;;;;9.73;87.80;100985.06;4935592;29;20044;-92
2023/05/04 05:59:24;;;;;;;9.75;5.60;;;;;;;9.79;87.14;100990.13;4937613;29;20048;-92
2023/05/04 06:02:02;;;;;;;7.85;4.93;;;;;;;9.89;87.88;100996.84;4925350;29;20032;-91
2023/05/04 06:04:45;;;;;;;7.57;5.32;;;;;;;10.02;86.33;100995.50;4924624;29;20048;-92
2023/05/04 06:07:18;;;;;;;8.25;5.45;;;;;;;10.05;83.80;100976.88;4910095;29;20036;-92
2023/05/04 06:09:56;;;;;;;7.97;5.18;;;;;;;10.18;83.27;100979.94;4908996;29;20040;-92
2023/05/04 06:12:27;;;;;;;9.65;5.47;;;;;;;10.29;83.72;100988.38;4923084;29;20187;-93
2023/05/04 06:14:58;;;;;;;10.48;6.47;;;;;;;10.43;83.92;100986.09;4922673;29;20043;-94
2023/05/04 06:17:27;;;;;;;6.68;5.10;;;;;;;10.63;80.92;100982.72;4918030;29;20046;-94
2023/05/04 06:20:13;;;;;;;9.48;5.22;;;;;;;10.76;77.48;100983.97;4932835;29;20104;-92
2023/05/04 06:22:41;;;;;;;9.20;5.67;;;;;;;10.88;77.13;100978.19;4931356;29;20055;-93
2023/05/04 06:25:11;;;;;;;8.27;5.20;;;;;;;11.08;76.78;100982.72;4909562;29;20055;-93
2023/05/04 06:27:46;;;;;;;6.22;4.93;;;;;;;11.34;72.85;100988.75;4926231;29;20054;-93
2023/05/04 06:30:15;;;;;;;9.68;5.63;;;;;;;11.56;70.61;100982.50;4894656;29;20068;-92
2023/05/04 06:32:50;;;;;;;9.63;5.00;;;;;;;11.88;68.58;100980.31;4913569;29;20048;-93
2023/05/04 06:35:35;;;;;;;10.23;4.88;;;;;;;11.93;68.79;100962.41;4915106;29;20119;-92
2023/05/04 06:38:05;;;;;;;8.90;4.25;;;;;;;12.26;65.65;100987.47;4939441;29;20070;-92
2023/05/04 06:40:44;;;;;;;7.57;5.30;;;;;;;12.53;65.61;100980.03;4948999;28;20051;-94
2023/05/04 06:43:12;;;;;;;6.80;4.65;;;;;;;12.76;63.23;100964.81;4947555;29;20051;-93
2023/05/04 06:45:40;;;;;;;8.55;5.18;;;;;;;13.03;62.41;100941.41;4932664;29;20107;-92
2023/05/04 06:48:17;;;;;;;6.75;4.60;;;;;;;13.51;61.02;100978.94;4962374;29;20111;-93
2023/05/04 06:50:58;;;;;;;8.95;5.03;;;;;;;13.76;58.61;100980.34;4935154;29;20053;-90
2023/05/04 06:53:46;;;;;;;6.70;4.93;;;;;;;13.78;59.46;100979.31;4960798;28;20041;-92
2023/05/04 06:56:27;;;;;;;12.02;5.53;;;;;;;13.79;59.25;100978.38;4972727;29;20046;-92
2023/05/04 06:59:06;;;;;;;9.80;4.90;;;;;;;13.80;60.62;100971.25;4951247;29;20043;-91
2023/05/04 07:01:49;;;;;;;6.28;4.78;;;;;;;13.78;60.31;100963.34;4954627;29;20047;-92
2023/05/04 07:04:21;;;;;;;6.50;4.70;;;;;;;13.75;59.41;100926.25;4942508;29;20057;-90
2023/05/04 07:06:57;;;;;;;7.97;5.15;;;;;;;14.32;59.01;100975.56;4958325;29;20047;-92
2023/05/04 07:09:38;;;;;;;7.93;5.38;;;;;;;14.45;58.13;100969.66;4968797;29;20049;-93
2023/05/04 07:12:10;;;;;;;7.75;5.00;;;;;;;14.70;57.76;100989.53;4977226;28;20146;-91
2023/05/04 07:14:39;;;;;;;8.70;5.32;;;;;;;14.89;54.81;100976.06;4953036;29;20039;-93
2023/05/04 07:17:30;;;;;;;8.57;5.10;;;;;;;14.84;54.38;100956.78;4948355;29;20055;-92
2023/05/04 07:20:15;;;;;;;6.65;4.65;;;;;;;15.08;56.00;100968.75;4952549;29;20044;-93
2023/05/04 07:22:57;;;;;;;6.07;4.88;;;;;;;15.38;54.77;100962.63;4935929;29;20078;-93
2023/05/04 07:25:25;;;;;;;7.47;4.78;;;;;;;15.47;54.29;100938.06;4964574;29;20055;-93
2023/05/04 07:27:54;;;;;;;7.10;4.38;;;;;;;15.94;51.56;100956.63;4964533;29;20220;-93
2023/05/04 07:30:21;;;;;;;6.22;5.40;;;;;;;16.10;50.53;100951.19;4960027;28;20035;-92
2023/05/04 07:32:48;;;;;;;6.97;4.80;;;;;;;15.98;50.54;100935.94;4961988;29;20106;-93
2023/05/04 07:35:22;;;;;;;7.40;5.05;;;;;;;16.10;49.95;100929.84;4977238;29;20059;-93
2023/05/04 07:38:29;;;;;;;6.95;4.63;;;;;;;16.40;50.40;100938.63;4976346;28;20044;-92
2023/05/04 07:40:58;;;;;;;7.78;4.85;;;;;;;16.44;48.56;100918.78;4976460;28;20190;-93
2023/05/04 07:43:25;;;;;;;7.22;5.32;;;;;;;16.69;49.08;100938.63;4937434;29;20083;-92
2023/05/04 07:46:07;;;;;;;7.32;5.18;;;;;;;16.91;48.46;100944.31;4956664;29;20043;-93
2023/05/04 07:49:03;;;;;;;7.65;4.88;;;;;;;17.12;47.93;100947.44;4952605;29;20043;-93
2023/05/04 07:51:31;;;;;;;11.90;5.20;;;;;;;17.42;46.71;100947.22;4969936;29;20053;-93
2023/05/04 07:54:14;;;;;;;10.65;5.30;;;;;;;17.78;45.41;100949.28;4963966;29;20083;-92
2023/05/04 07:56:49;;;;;;;7.90;4.70;;;;;;;18.22;45.16;100947.06;4979680;28;20050;-92
2023/05/04 07:59:17;;;;;;;10.60;5.15;;;;;;;18.60;43.56;100951.56;4963145;29;20035;-91
2023/05/04 08:01:46;;;;;;;9.45;5.15;;;;;;;18.72;44.32;100912.28;4948573;29;20087;-92
2023/05/04 08:04:15;;;;;;;7.97;5.28;;;;;;;18.98;43.15;100929.16;4962358;29;20500;-92
2023/05/04 08:06:42;;;;;;;7.50;4.80;;;;;;;19.04;43.23;100896.50;4977821;29;20128;-91
2023/05/04 08:09:13;;;;;;;9.60;5.88;;;;;;;19.44;42.27;100918.53;4934998;29;20047;-93
2023/05/04 08:11:52;;;;;;;10.30;6.03;;;;;;;19.37;42.39;100909.22;4950591;29;20055;-93
2023/05/04 08:14:29;;;;;;;7.35;5.18;;;;;;;19.36;42.61;100919.09;4965956;29;20050;-93
2023/05/04 08:17:05;;;;;;;8.13;5.40;;;;;;;19.24;42.34;100928.06;4951332;29;20047;-93
2023/05/04 08:19:46;;;;;;;7.72;5.72;;;;;;;19.10;43.05;100914.81;4961178;29;20081;-93
2023/05/04 08:22:21;;;;;;;9.88;5.63;;;;;;;19.02;45.06;100911.88;4962840;29;20067;-91
2023/05/04 08:25:05;;;;;;;9.55;5.78;;;;;;;18.87;43.47;100900.44;4964988;29;20043;-91
2023/05/04 08:27:50;;;;;;;8.90;5.45;;;;;;;18.37;44.29;100902.22;4955564;29;20047;-92
2023/05/04 08:30:34;;;;;;;8.60;5.45;;;;;;;18.15;46.00;100900.22;4965776;28;20218;-92
2023/05/04 08:33:25;;;;;;;7.78;5.55;;;;;;;18.19;45.63;100900.84;4972258;29;20102;-91
2023/05/04 08:35:57;;;;;;;9.13;5.50;;;;;;;18.28;45.79;100912.72;4969073;28;20060;-92
2023/05/04 08:39:02;;;;;;;12.70;5.93;;;;;;;18.18;46.23;100891.09;4959707;29;20043;-93
2023/05/04 08:42:04;;;;;;;10.13;6.20;;;;;;;18.24;45.88;100896.03;4969754;29;20062;-92
2023/05/04 08:44:35;;;;;;;7.25;5.63;;;;;;;18.25;45.85;100875.44;4970548;29;20051;-92
2023/05/04 08:47:09;;;;;;;8.18;5.85;;;;;;;18.56;45.94;100878.50;4953583;29;20085;-91
2023/05/04 08:49:57;;;;;;;9.00;5.70;;;;;;;18.80;45.13;100888.41;4953046;29;20082;-91
2023/05/04 08:52:28;;;;;;;8.13;5.65;;;;;;;18.86;45.11;100893.34;4935563;29;20048;-93
2023/05/04 08:55:38;;;;;;;7.93;5.45;;;;;;;18.79;46.26;100875.97;5103163;27;20791;-93
2023/05/04 08:58:47;;;;;;;7.75;5.95;;;;;;;19.02;44.70;100856.34;5103685;28;20044;-93
2023/05/04 09:01:35;;;;;;;8.10;5.50;;;;;;;19.09;44.99;100841.50;5103521;28;20036;-92
2023/05/04 09:04:36;;;;;;;9.32;5.95;;;;;;;18.87;44.33;100795.78;5101669;28;20074;-92
2023/05/04 09:07:03;;;;;;;11.07;6.05;;;;;;;19.21;44.55;100869.22;5098809;28;20098;-91
2023/05/04 09:09:52;;;;;;;9.43;6.07;;;;;;;19.17;45.11;100863.25;5102970;28;20048;-92
2023/05/04 09:12:32;;;;;;;8.77;5.45;;;;;;;19.35;44.86;100869.06;5101097;28;20045;-92
2023/05/04 09:15:16;;;;;;;8.32;6.30;;;;;;;19.20;44.36;100857.63;5098822;28;20044;-94
2023/05/04 09:18:02;;;;;;;10.73;6.97;;;;;;;18.85;45.58;100859.44;5101802;28;20051;-92
2023/05/04 09:20:54;;;;;;;7.07;5.20;;;;;;;18.71;47.18;100857.78;5101483;28;20044;-92
2023/05/04 09:23:26;;;;;;;11.00;6.13;;;;;;;18.40;46.32;100805.50;5102087;28;20052;-90
2023/05/04 09:25:55;;;;;;;11.57;6.68;;;;;;;18.53;46.50;100853.72;5102227;28;20040;-93
2023/05/04 09:28:50;;;;;;;9.57;6.18;;;;;;;18.23;47.49;100832.66;5103469;27;1435293;-91
2023/05/04 09:31:25;;;;;;;7.63;5.72;;;;;;;18.26;47.42;100834.28;5133585;28;20058;-91
2023/05/04 09:36:43;;;;;;;8.00;6.40;;;;;;;18.44;47.19;100849.00;5489830;22;20065;-92
2023/05/04 09:39:32;;;;;;;9.32;6.65;;;;;;;18.50;47.25;100846.75;5010354;28;20061;-93
2023/05/04 09:42:01;;;;;;;8.55;6.47;;;;;;;18.50;47.04;100849.44;5006998;28;20074;-93
2023/05/04 09:45:06;;;;;;;8.73;5.95;;;;;;;18.58;46.85;100841.69;5005984;28;20046;-92
2023/05/04 09:47:41;;;;;;;8.85;6.28;;;;;;;18.47;47.00;100820.16;5003341;28;20106;-92
2023/05/04 09:50:24;;;;;;;7.75;5.75;;;;;;;18.46;46.93;100821.09;5005541;28;20122;-91
2023/05/04 09:53:01;;;;;;;8.63;5.85;;;;;;;18.56;47.56;100822.16;4998191;28;20038;-91
2023/05/04 09:55:31;;;;;;;9.20;6.22;;;;;;;18.71;46.67;100817.53;5013782;28;20106;-90
2023/05/04 09:58:07;;;;;;;10.20;5.85;;;;;;;18.79;46.40;100816.94;5010546;28;20046;-91
2023/05/04 10:00:38;;;;;;;8.48;5.82;;;;;;;18.87;46.81;100830.66;5014066;28;20043;-91
2023/05/04 10:03:16;;;;;;;9.15;5.90;;;;;;;18.95;46.66;100819.34;5013738;28;20042;-92
2023/05/04 10:06:01;;;;;;;8.15;6.22;;;;;;;19.01;45.94;100816.22;5012534;28;20031;-92
2023/05/04 10:08:39;;;;;;;6.00;5.40;;;;;;;18.96;46.94;100787.03;5012494;28;20066;-92
2023/05/04 10:11:17;;;;;;;6.65;5.68;;;;;;;19.35;46.25;100810.00;4931749;29;20050;-91
2023/05/04 10:13:48;;;;;;;9.32;5.57;;;;;;;19.45;44.95;100792.19;4943690;29;20044;-92
2023/05/04 10:17:13;;;;;;;7.78;5.07;;;;;;;19.73;43.31;100804.34;4945715;29;20055;-92
2023/05/04 10:20:08;;;;;;;10.48;6.18;;;;;;;19.82;43.02;100792.03;4943829;29;20047;-91
2023/05/04 10:23:12;;;;;;;9.70;5.75;;;;;;;19.77;42.46;100776.25;4940881;29;20044;-92
2023/05/04 10:25:56;;;;;;;5.90;5.25;;;;;;;19.87;42.81;100769.16;4940122;29;20055;-91
2023/05/04 10:28:53;;;;;;;5.50;4.85;;;;;;;20.08;42.02;100788.09;4937658;28;20054;-93
2023/05/04 10:34:44;;;;;;;6.82;4.85;;;;;;;20.33;39.21;100786.97;4999518;28;20051;-92
2023/05/04 10:37:19;;;;;;;7.43;4.60;;;;;;;20.32;39.76;100753.81;5000930;28;20054;-92
2023/05/04 10:39:54;;;;;;;5.68;4.32;;;;;;;20.58;39.48;100781.31;4988553;28;20123;-92
2023/05/04 10:42:24;;;;;;;6.55;4.43;;;;;;;20.57;38.76;100771.53;4986717;28;20047;-93
2023/05/04 10:45:04;;;;;;;6.88;4.57;;;;;;;20.34;38.60;100726.81;4977360;28;20066;-92
2023/05/04 10:47:56;;;;;;;5.88;4.43;;;;;;;20.71;38.54;100766.84;4995159;28;20101;-90
2023/05/04 10:50:50;;;;;;;5.88;4.25;;;;;;;20.65;39.25;100768.19;4997621;28;20118;-92
2023/05/04 10:53:30;;;;;;;5.25;4.35;;;;;;;20.74;37.84;100751.31;4997322;28;20054;-91
2023/05/04 10:56:05;;;;;;;6.80;4.22;;;;;;;20.87;37.98;100743.06;4996667;28;20046;-91
2023/05/04 10:58:35;;;;;;;5.35;3.80;;;;;;;20.91;37.80;100731.03;4996988;28;20095;-92
2023/05/04 11:01:15;;;;;;;5.15;4.00;;;;;;;20.99;37.11;100724.00;4993739;28;20111;-92
2023/05/04 11:04:00;;;;;;;4.65;4.20;;;;;;;21.14;37.01;100724.53;4986817;28;20058;-92
2023/05/04 11:06:28;;;;;;;5.00;3.92;;;;;;;21.18;37.47;100715.22;4993339;28;20049;-93
2023/05/04 11:09:11;;;;;;;6.75;4.65;;;;;;;21.32;37.74;100723.00;4942901;29;20048;-93
2023/05/04 11:11:59;;;;;;;6.53;4.38;;;;;;;21.34;37.59;100714.78;4882912;29;20037;-92
2023/05/04 11:14:44;;;;;;;5.85;4.20;;;;;;;21.39;37.38;100695.53;4868617;29;20053;-92
2023/05/04 11:17:16;;;;;;;5.65;3.97;;;;;;;21.39;36.18;100682.91;4868639;29;20062;-90
2023/05/04 11:19:51;;;;;;;5.20;4.47;;;;;;;21.54;36.72;100699.56;4877325;29;20077;-91
2023/05/04 11:22:18;;;;;;;6.80;4.28;;;;;;;21.54;36.96;100688.78;4876697;29;20046;-91
2023/05/04 11:24:49;;;;;;;5.18;4.03;;;;;;;21.47;37.20;100675.00;4862510;29;20101;-92
2023/05/04 11:27:28;;;;;;;5.07;3.90;;;;;;;21.54;37.00;100688.78;4878389;29;20558;-93
2023/05/04 11:30:03;;;;;;;6.15;3.65;;;;;;;21.58;37.29;100674.88;4922176;29;20047;-93
2023/05/04 11:32:45;;;;;;;8.02;3.70;;;;;;;21.66;36.69;100676.91;4952041;29;20056;-94
2023/05/04 11:35:17;;;;;;;6.50;3.17;;;;;;;21.71;36.57;100671.97;4984818;28;20043;-92
2023/05/04 11:37:46;;;;;;;4.63;3.50;;;;;;;21.75;36.06;100675.22;4988374;28;20065;-92
2023/05/04 11:40:15;;;;;;;5.07;3.35;;;;;;;21.94;35.99;100669.91;4998693;28;20027;-90
2023/05/04 11:42:42;;;;;;;6.75;3.30;;;;;;;22.07;36.32;100669.69;4999383;28;20047;-93
2023/05/04 11:45:21;;;;;;;4.45;3.58;;;;;;;22.14;35.22;100654.66;4987574;28;20439;-92
2023/05/04 11:48:03;;;;;;;4.68;3.47;;;;;;;22.10;35.26;100651.38;4989477;28;20047;-92
2023/05/04 11:51:10;;;;;;;5.15;3.72;;;;;;;22.25;35.38;100651.81;4982135;28;20085;-93
2023/05/04 11:53:52;;;;;;;8.55;4.07;;;;;;;22.26;35.11;100632.81;4985508;28;20051;-92
2023/05/04 11:56:40;;;;;;;4.72;4.20;;;;;;;22.30;35.17;100627.97;4971751;28;20055;-92
2023/05/04 11:59:12;;;;;;;5.05;3.90;;;;;;;22.39;35.08;100640.59;4984007;28;20432;-91
2023/05/04 12:01:40;;;;;;;5.45;3.67;;;;;;;22.45;34.87;100633.81;4984870;28;20047;-94
2023/05/04 12:04:07;;;;;;;5.32;3.50;;;;;;;22.48;35.28;100620.88;4984778;28;20053;-92
2023/05/04 12:06:33;;;;;;;4.97;3.90;;;;;;;22.60;35.14;100626.97;4986787;28;20043;-93
2023/05/04 12:09:03;;;;;;;4.10;3.70;;;;;;;22.59;34.58;100625.28;4984941;28;20125;-93
2023/05/04 12:11:31;;;;;;;7.53;3.70;;;;;;;22.62;34.33;100633.09;4986925;28;20114;-94
2023/05/04 12:16:56;;;;;;;5.00;3.65;;;;;;;22.67;34.31;100637.03;5011864;23;20054;-93